Time;durP1;ratioP1;P1;durP2;ratioP2;P2;SDS_P1;SDS_P2;PMS_P1;PMS_P2;Temp;Humidity;BMP_temperature;BMP_pressure;BME280_temperature;BME280_humidity;BME280_pressure;Samples;Min_cycle;Max_cycle;Signal;HPM_P1;HPM_P2
2022/01/13 00:00:33;;;;;;;2.75;2.55;;;4.80;99.90;;;;;;5061011;28;20120;-78
2022/01/13 00:02:59;;;;;;;4.43;3.63;;;4.80;99.90;;;;;;5061560;28;20084;-78
2022/01/13 00:05:29;;;;;;;4.50;4.07;;;4.80;99.90;;;;;;5060595;28;20062;-78
2022/01/13 00:07:57;;;;;;;3.75;3.45;;;4.80;99.90;;;;;;5060949;28;20101;-78
2022/01/13 00:10:23;;;;;;;4.03;3.60;;;4.80;99.90;;;;;;5060687;28;20124;-79
2022/01/13 00:12:57;;;;;;;5.68;2.70;;;4.80;99.90;;;;;;5061484;28;20055;-78
2022/01/13 00:15:45;;;;;;;19.73;4.47;;;4.80;99.90;;;;;;5060176;28;20752;-78
2022/01/13 00:18:29;;;;;;;5.72;3.83;;;4.80;99.90;;;;;;5061395;28;20506;-79
2022/01/13 00:23:38;;;;;;;4.00;3.67;;;4.80;99.90;;;;;;5060876;28;20098;-78
2022/01/13 00:26:14;;;;;;;15.80;2.50;;;4.80;99.90;;;;;;5061425;28;20487;-79
2022/01/13 00:28:40;;;;;;;4.88;3.53;;;4.80;99.90;;;;;;5060466;28;20045;-78
2022/01/13 00:31:07;;;;;;;4.53;4.03;;;4.80;99.90;;;;;;5044262;28;20483;-79
2022/01/13 00:33:33;;;;;;;5.50;4.22;;;4.80;99.90;;;;;;5041251;28;20037;-79
2022/01/13 00:36:00;;;;;;;6.13;4.45;;;4.90;99.90;;;;;;5041466;28;20048;-78
2022/01/13 00:38:32;;;;;;;3.55;3.33;;;4.90;99.90;;;;;;5006433;28;20037;-79
2022/01/13 00:40:58;;;;;;;5.05;3.90;;;4.80;99.90;;;;;;5060479;28;20036;-78
2022/01/13 00:43:24;;;;;;;6.63;3.97;;;4.90;99.90;;;;;;5061181;28;20495;-79
2022/01/13 00:45:50;;;;;;;22.67;5.78;;;4.90;99.90;;;;;;5060012;28;20055;-79
2022/01/13 00:48:16;;;;;;;4.80;4.40;;;4.90;99.90;;;;;;5043557;28;20776;-79
2022/01/13 00:50:42;;;;;;;7.25;4.05;;;4.90;99.90;;;;;;5061600;28;20115;-79
2022/01/13 00:53:08;;;;;;;4.20;3.90;;;4.90;99.90;;;;;;5060286;28;20148;-78
2022/01/13 00:55:49;;;;;;;5.75;5.13;;;4.90;99.90;;;;;;5061089;28;20471;-79
2022/01/13 00:58:16;;;;;;;5.47;4.97;;;4.90;99.90;;;;;;5060531;28;20659;-79
2022/01/13 01:00:42;;;;;;;3.53;3.22;;;5.00;99.90;;;;;;5060328;28;20047;-78
2022/01/13 01:03:08;;;;;;;3.75;3.28;;;4.90;99.90;;;;;;5061212;28;20044;-79
2022/01/13 01:05:35;;;;;;;3.80;3.40;;;4.90;99.90;;;;;;5059738;28;20036;-79
2022/01/13 01:08:05;;;;;;;7.97;5.10;;;4.90;99.90;;;;;;5061081;28;20045;-79
2022/01/13 01:10:31;;;;;;;4.90;4.50;;;5.00;99.90;;;;;;5059652;28;20079;-78
2022/01/13 01:12:56;;;;;;;4.97;4.10;;;5.00;99.90;;;;;;5060547;28;20076;-79
2022/01/13 01:15:24;;;;;;;9.23;4.05;;;5.00;99.90;;;;;;5059661;28;20118;-79
2022/01/13 01:17:56;;;;;;;7.25;5.28;;;5.00;99.90;;;;;;5060603;28;20083;-79
2022/01/13 01:20:28;;;;;;;5.53;5.03;;;5.00;99.90;;;;;;5042766;28;20127;-79
2022/01/13 01:23:04;;;;;;;5.97;4.72;;;5.00;99.90;;;;;;5042504;28;20060;-78
2022/01/13 01:27:58;;;;;;;5.28;4.68;;;5.00;99.90;;;;;;5059919;28;20139;-79
2022/01/13 01:32:53;;;;;;;5.63;3.75;;;5.00;99.90;;;;;;5034497;28;20048;-79
2022/01/13 01:35:19;;;;;;;5.93;4.45;;;5.00;99.90;;;;;;5059772;28;20040;-79
2022/01/13 01:37:45;;;;;;;7.90;4.63;;;5.00;99.90;;;;;;5060078;28;20585;-78
2022/01/13 01:40:13;;;;;;;4.93;4.38;;;5.00;99.90;;;;;;5060729;28;20542;-79
2022/01/13 01:42:39;;;;;;;21.15;5.55;;;5.00;99.90;;;;;;5060324;28;20099;-79
2022/01/13 01:45:07;;;;;;;7.85;5.03;;;4.90;99.90;;;;;;5059602;28;20155;-78
2022/01/13 01:47:33;;;;;;;11.52;3.65;;;5.00;99.90;;;;;;5060418;28;20091;-79
2022/01/13 01:50:12;;;;;;;10.35;5.85;;;5.00;99.90;;;;;;5060249;28;20080;-78
2022/01/13 01:52:39;;;;;;;4.20;3.90;;;5.00;99.90;;;;;;5042123;28;20040;-79
2022/01/13 01:55:06;;;;;;;5.53;5.00;;;5.00;99.90;;;;;;5060111;28;20052;-79
2022/01/13 01:57:32;;;;;;;4.72;4.28;;;4.90;99.90;;;;;;5042165;28;20044;-79
2022/01/13 01:59:58;;;;;;;6.32;5.72;;;4.90;99.90;;;;;;5041794;28;20037;-79
2022/01/13 02:02:26;;;;;;;15.02;2.80;;;4.90;99.90;;;;;;5059594;28;20037;-78
2022/01/13 02:04:52;;;;;;;4.18;3.83;;;4.90;99.90;;;;;;5059997;28;20098;-78
2022/01/13 02:07:18;;;;;;;6.28;4.80;;;4.90;99.90;;;;;;5057975;22;20041;-79
2022/01/13 02:09:49;;;;;;;5.32;4.82;;;4.90;99.90;;;;;;5019585;28;20531;-79
2022/01/13 02:12:25;;;;;;;4.82;3.67;;;4.90;99.90;;;;;;5020509;28;20052;-79
2022/01/13 02:17:38;;;;;;;4.43;4.03;;;4.80;99.90;;;;;;5020418;28;20060;-79
2022/01/13 02:20:04;;;;;;;3.88;3.42;;;4.80;99.90;;;;;;5020521;28;20045;-79
2022/01/13 02:22:30;;;;;;;4.57;3.75;;;4.80;99.90;;;;;;5019314;28;20045;-79
2022/01/13 02:24:55;;;;;;;4.97;4.30;;;4.80;99.90;;;;;;5002815;28;20099;-79
2022/01/13 02:27:21;;;;;;;4.65;4.25;;;4.80;99.90;;;;;;5020205;28;20046;-78
2022/01/13 02:29:48;;;;;;;4.75;4.32;;;4.80;99.90;;;;;;5012699;28;20480;-79
2022/01/13 02:32:14;;;;;;;3.50;3.28;;;4.80;99.90;;;;;;5001327;28;20042;-79
2022/01/13 02:34:40;;;;;;;3.70;3.40;;;4.80;99.90;;;;;;5001043;28;20104;-79
2022/01/13 02:37:05;;;;;;;5.03;4.53;;;4.80;99.90;;;;;;5006234;28;20045;-79
2022/01/13 02:39:31;;;;;;;5.20;4.72;;;4.80;99.90;;;;;;5005871;28;20064;-79
2022/01/13 02:41:58;;;;;;;10.70;4.20;;;4.80;99.90;;;;;;5023198;28;20041;-79
2022/01/13 02:44:24;;;;;;;3.30;3.05;;;4.80;99.90;;;;;;5022818;28;20117;-79
2022/01/13 02:49:20;;;;;;;8.77;4.43;;;4.80;99.90;;;;;;5022555;28;20099;-79
2022/01/13 02:51:48;;;;;;;5.28;4.85;;;4.80;99.90;;;;;;5023942;28;20045;-78
2022/01/13 02:54:14;;;;;;;3.85;3.45;;;4.80;99.90;;;;;;5006153;28;20037;-79
2022/01/13 02:56:42;;;;;;;6.47;5.82;;;4.80;99.90;;;;;;5005350;28;20099;-79
2022/01/13 02:59:08;;;;;;;6.40;4.55;;;4.80;99.90;;;;;;5005203;28;20451;-79
2022/01/13 03:01:34;;;;;;;11.20;5.63;;;4.80;99.90;;;;;;5022978;28;20047;-79
2022/01/13 03:04:04;;;;;;;9.00;4.07;;;4.80;99.90;;;;;;5022975;28;20045;-79
2022/01/13 03:06:36;;;;;;;29.50;4.28;;;4.80;99.90;;;;;;5022403;28;20038;-79
2022/01/13 03:09:05;;;;;;;9.00;4.63;;;4.80;99.90;;;;;;5005328;28;20053;-79
2022/01/13 03:11:36;;;;;;;7.30;5.00;;;4.80;99.90;;;;;;5023096;28;20037;-79
2022/01/13 03:14:03;;;;;;;4.63;4.28;;;4.80;99.90;;;;;;5022383;28;20045;-79
2022/01/13 03:16:30;;;;;;;9.20;5.13;;;4.80;99.90;;;;;;5022745;28;20085;-78
2022/01/13 03:18:56;;;;;;;17.35;2.80;;;4.80;99.90;;;;;;5004960;28;20125;-79
2022/01/13 03:21:21;;;;;;;7.38;4.10;;;4.80;99.90;;;;;;5005293;28;20554;-79
2022/01/13 03:23:47;;;;;;;4.75;3.97;;;4.80;99.90;;;;;;5022604;28;20076;-79
2022/01/13 03:26:12;;;;;;;7.45;3.40;;;4.80;99.90;;;;;;5023180;28;20045;-79
2022/01/13 03:28:40;;;;;;;6.50;3.60;;;4.80;99.90;;;;;;5021551;28;20041;-79
2022/01/13 03:31:08;;;;;;;2.88;2.70;;;4.80;99.90;;;;;;5005415;28;20118;-79
2022/01/13 03:33:34;;;;;;;5.38;4.85;;;4.80;99.90;;;;;;5013898;28;20049;-79
2022/01/13 03:36:02;;;;;;;3.90;3.58;;;4.80;99.90;;;;;;5022746;28;20102;-79
2022/01/13 03:38:27;;;;;;;3.70;3.35;;;4.80;99.90;;;;;;5021396;28;20034;-79
2022/01/13 03:40:53;;;;;;;7.65;4.97;;;4.80;99.90;;;;;;5022752;28;20124;-79
2022/01/13 03:43:19;;;;;;;5.70;3.55;;;4.80;99.90;;;;;;5021352;28;20045;-79
2022/01/13 03:45:46;;;;;;;4.57;4.25;;;4.80;99.90;;;;;;5004706;28;20057;-79
2022/01/13 03:48:13;;;;;;;4.15;3.72;;;4.80;99.90;;;;;;5022841;28;20120;-79
2022/01/13 03:50:43;;;;;;;7.18;3.85;;;4.80;99.90;;;;;;5021927;28;20052;-79
2022/01/13 03:53:44;;;;;;;2.80;2.50;;;4.80;99.90;;;;;;5022089;28;20037;-79
2022/01/13 03:56:47;;;;;;;7.45;4.80;;;4.80;99.90;;;;;;5004490;28;20056;-79
2022/01/13 03:59:27;;;;;;;2.97;2.78;;;4.80;99.90;;;;;;5003625;28;20060;-79
2022/01/13 04:02:14;;;;;;;9.70;4.45;;;4.80;99.90;;;;;;4988280;28;20045;-79
2022/01/13 04:04:48;;;;;;;4.32;4.00;;;4.80;99.90;;;;;;5004014;28;20171;-79
2022/01/13 04:07:14;;;;;;;5.18;4.60;;;4.80;99.90;;;;;;5022069;28;20129;-79
2022/01/13 04:09:43;;;;;;;4.45;3.47;;;4.80;99.90;;;;;;5021571;28;20179;-79
2022/01/13 04:12:11;;;;;;;11.38;3.15;;;4.80;99.90;;;;;;5021989;28;20056;-79
2022/01/13 04:17:07;;;;;;;7.32;6.57;;;4.80;99.90;;;;;;5021986;28;20295;-78
2022/01/13 04:19:33;;;;;;;4.40;4.00;;;4.80;99.90;;;;;;5021490;28;20110;-79
2022/01/13 04:21:58;;;;;;;4.63;4.22;;;4.80;99.90;;;;;;5021740;28;20492;-79
2022/01/13 04:24:24;;;;;;;3.83;3.50;;;4.90;99.90;;;;;;5020882;28;20503;-79
2022/01/13 04:26:53;;;;;;;10.15;4.60;;;4.90;99.90;;;;;;5021850;28;20038;-79
2022/01/13 04:29:27;;;;;;;7.00;5.07;;;4.80;99.90;;;;;;5018582;28;20107;-79
2022/01/13 04:31:53;;;;;;;6.53;4.35;;;4.90;99.90;;;;;;5001911;28;20045;-78
2022/01/13 04:34:19;;;;;;;3.97;3.67;;;4.90;99.90;;;;;;4984048;28;20570;-79
2022/01/13 04:36:46;;;;;;;9.68;5.07;;;4.90;99.90;;;;;;4999236;28;20049;-78
2022/01/13 04:39:16;;;;;;;4.32;3.92;;;4.90;99.90;;;;;;5022066;28;20223;-79
2022/01/13 04:41:45;;;;;;;4.35;3.55;;;4.90;99.90;;;;;;5021733;28;20049;-79
2022/01/13 04:44:13;;;;;;;3.85;3.50;;;4.90;99.90;;;;;;5020109;28;20053;-79
2022/01/13 04:46:39;;;;;;;6.18;4.07;;;4.90;99.90;;;;;;5021122;28;20133;-79
2022/01/13 04:49:06;;;;;;;7.95;3.95;;;4.90;99.90;;;;;;5021298;28;20041;-79
2022/01/13 04:51:32;;;;;;;5.95;4.18;;;4.90;99.90;;;;;;5020455;28;20112;-79
2022/01/13 04:53:58;;;;;;;4.72;4.35;;;4.90;99.90;;;;;;5021448;28;20529;-79
2022/01/13 04:56:29;;;;;;;5.65;5.07;;;4.90;99.90;;;;;;5002782;28;20049;-79
2022/01/13 04:58:56;;;;;;;4.95;4.50;;;5.00;99.90;;;;;;5020211;28;20046;-79
2022/01/13 05:01:21;;;;;;;4.72;4.35;;;5.00;99.90;;;;;;5020759;28;20044;-79
2022/01/13 05:03:47;;;;;;;8.30;5.40;;;5.00;99.90;;;;;;5021224;28;20438;-78
2022/01/13 05:06:13;;;;;;;7.00;5.45;;;5.00;99.90;;;;;;5021010;28;20081;-79
2022/01/13 05:08:39;;;;;;;3.92;3.63;;;5.00;99.90;;;;;;5020494;28;20049;-79
2022/01/13 05:11:05;;;;;;;4.57;4.28;;;5.00;99.90;;;;;;5003234;28;20072;-79
2022/01/13 05:13:31;;;;;;;8.52;6.97;;;5.00;99.90;;;;;;5019873;28;20778;-79
2022/01/13 05:15:56;;;;;;;7.60;6.22;;;5.00;99.90;;;;;;5020911;28;20053;-79
2022/01/13 05:21:06;;;;;;;14.63;7.20;;;5.10;99.90;;;;;;5019944;28;20053;-79
2022/01/13 05:23:32;;;;;;;6.45;5.80;;;5.10;99.90;;;;;;5020649;28;20120;-79
2022/01/13 05:25:58;;;;;;;8.60;6.38;;;5.10;99.90;;;;;;5020317;28;20049;-79
2022/01/13 05:28:24;;;;;;;11.93;4.97;;;5.10;99.90;;;;;;5020003;28;20514;-79
2022/01/13 05:30:50;;;;;;;4.93;4.20;;;5.10;99.90;;;;;;5005992;28;20381;-79
2022/01/13 05:33:15;;;;;;;8.98;6.50;;;5.20;99.90;;;;;;4983886;28;20069;-79
2022/01/13 05:35:41;;;;;;;6.93;6.05;;;5.20;99.90;;;;;;5000866;28;20042;-79
2022/01/13 05:38:08;;;;;;;9.38;8.38;;;5.20;99.90;;;;;;5000721;28;20104;-79
2022/01/13 05:40:35;;;;;;;8.43;7.80;;;5.20;99.90;;;;;;5000650;28;20050;-79
2022/01/13 05:43:02;;;;;;;11.23;7.45;;;5.20;99.90;;;;;;5011875;28;20053;-79
2022/01/13 05:45:33;;;;;;;13.88;7.40;;;5.20;99.90;;;;;;5019768;28;20585;-79
2022/01/13 05:48:00;;;;;;;6.60;6.00;;;5.20;99.90;;;;;;5020440;28;20038;-79
2022/01/13 05:50:27;;;;;;;7.95;6.55;;;5.30;99.90;;;;;;5002675;28;20048;-78
2022/01/13 05:52:52;;;;;;;8.85;6.50;;;5.30;99.90;;;;;;5020121;28;20044;-79
2022/01/13 05:55:18;;;;;;;8.07;6.03;;;5.30;99.90;;;;;;5020136;28;20484;-79
2022/01/13 05:57:44;;;;;;;9.20;7.40;;;5.30;99.90;;;;;;5020489;28;20084;-78
2022/01/13 06:00:12;;;;;;;7.40;6.70;;;5.30;99.90;;;;;;5020288;28;20059;-79
2022/01/13 06:02:39;;;;;;;10.18;8.93;;;5.30;99.90;;;;;;5019789;28;20546;-79
2022/01/13 06:05:06;;;;;;;10.45;7.18;;;5.30;99.90;;;;;;5020383;28;20057;-79
2022/01/13 06:07:32;;;;;;;6.25;5.75;;;5.30;99.90;;;;;;5013304;28;20045;-79
2022/01/13 06:09:58;;;;;;;7.07;5.72;;;5.40;99.90;;;;;;5003188;28;20050;-79
2022/01/13 06:12:32;;;;;;;26.67;6.53;;;5.40;99.90;;;;;;5005963;28;20037;-79
2022/01/13 06:15:02;;;;;;;15.00;8.77;;;5.40;99.90;;;;;;5005437;28;20057;-79
2022/01/13 06:17:29;;;;;;;7.97;6.47;;;5.40;99.90;;;;;;5023369;28;20046;-78
2022/01/13 06:19:55;;;;;;;6.10;5.57;;;5.40;99.90;;;;;;5005686;28;20572;-78
2022/01/13 06:22:22;;;;;;;9.00;7.00;;;5.40;99.90;;;;;;5023860;28;20046;-79
2022/01/13 06:24:49;;;;;;;9.65;7.22;;;5.40;99.90;;;;;;5005919;28;20107;-79
2022/01/13 06:27:15;;;;;;;6.00;5.50;;;5.40;99.90;;;;;;5006310;28;20045;-79
2022/01/13 06:29:41;;;;;;;18.65;8.43;;;5.50;99.90;;;;;;5017437;28;20041;-78
2022/01/13 06:32:07;;;;;;;5.28;3.97;;;5.50;99.90;;;;;;4986144;28;20554;-79
2022/01/13 06:34:33;;;;;;;9.57;6.50;;;5.50;99.90;;;;;;5010854;28;20045;-79
2022/01/13 06:36:58;;;;;;;10.55;6.28;;;5.50;99.90;;;;;;5022038;28;20064;-79
2022/01/13 06:39:24;;;;;;;7.20;6.45;;;5.50;99.90;;;;;;5022042;28;20034;-79
2022/01/13 06:41:49;;;;;;;15.90;7.97;;;5.50;99.90;;;;;;5010071;28;20038;-80
2022/01/13 06:44:15;;;;;;;8.68;6.15;;;5.50;99.90;;;;;;4995360;28;20045;-80
2022/01/13 06:46:41;;;;;;;11.43;8.68;;;5.50;99.90;;;;;;5004425;28;20045;-80
2022/01/13 06:49:07;;;;;;;5.60;4.90;;;5.60;99.90;;;;;;5014638;28;20044;-79
2022/01/13 06:51:32;;;;;;;7.72;7.05;;;5.60;99.90;;;;;;5023213;28;20444;-79
2022/01/13 06:53:58;;;;;;;14.60;8.65;;;5.60;99.90;;;;;;5005407;28;20454;-80
2022/01/13 06:56:24;;;;;;;6.95;6.35;;;5.60;99.90;;;;;;5019997;28;20037;-79
2022/01/13 06:58:51;;;;;;;7.90;7.03;;;5.60;99.90;;;;;;5004902;28;20057;-80
2022/01/13 07:01:17;;;;;;;10.13;6.97;;;5.70;99.90;;;;;;4990444;28;20052;-79
2022/01/13 07:03:43;;;;;;;8.13;7.43;;;5.70;99.90;;;;;;5012725;28;20416;-78
2022/01/13 07:06:08;;;;;;;8.95;7.35;;;5.70;99.90;;;;;;5022896;28;20117;-79
2022/01/13 07:08:34;;;;;;;8.32;6.50;;;5.70;99.90;;;;;;5022278;28;20045;-79
2022/01/13 07:11:03;;;;;;;9.20;7.20;;;5.70;99.90;;;;;;5022923;28;20120;-79
2022/01/13 07:13:29;;;;;;;7.18;6.03;;;5.80;99.90;;;;;;5021752;28;20451;-79
2022/01/13 07:15:55;;;;;;;12.15;7.07;;;5.80;99.90;;;;;;5022288;28;20045;-79
2022/01/13 07:18:20;;;;;;;8.10;7.30;;;5.80;99.90;;;;;;4994600;28;20108;-79
2022/01/13 07:20:48;;;;;;;5.35;4.85;;;5.80;99.90;;;;;;5009103;28;20053;-79
2022/01/13 07:23:14;;;;;;;8.45;7.65;;;5.80;99.90;;;;;;5023795;28;20056;-77
2022/01/13 07:25:39;;;;;;;14.65;8.13;;;5.80;99.90;;;;;;5017713;28;20042;-77
2022/01/13 07:28:05;;;;;;;6.15;5.65;;;5.80;99.90;;;;;;4995595;28;20049;-77
2022/01/13 07:30:31;;;;;;;8.05;5.55;;;5.80;99.90;;;;;;4995130;28;20226;-77
2022/01/13 07:32:57;;;;;;;7.47;6.78;;;5.80;99.90;;;;;;4998176;28;20034;-76
2022/01/13 07:35:22;;;;;;;5.95;4.93;;;5.80;99.90;;;;;;5021279;28;20037;-77
2022/01/13 07:37:48;;;;;;;9.68;6.18;;;5.80;99.90;;;;;;5020233;28;20040;-77
2022/01/13 07:40:15;;;;;;;13.80;7.55;;;5.80;99.90;;;;;;5001932;28;20050;-77
2022/01/13 07:42:42;;;;;;;8.05;7.38;;;5.90;99.90;;;;;;5021338;28;20041;-77
2022/01/13 07:45:12;;;;;;;21.88;8.52;;;5.90;99.90;;;;;;5022018;28;20070;-77
2022/01/13 07:47:37;;;;;;;17.60;7.28;;;5.90;99.90;;;;;;5019549;28;20115;-77
2022/01/13 07:50:06;;;;;;;15.00;7.88;;;5.90;99.90;;;;;;5020383;28;20936;-76
2022/01/13 07:52:32;;;;;;;7.95;7.05;;;5.90;99.90;;;;;;5021918;28;20462;-77
2022/01/13 07:54:57;;;;;;;7.90;7.20;;;5.90;99.90;;;;;;5020713;28;20041;-77
2022/01/13 07:57:23;;;;;;;10.10;6.13;;;6.00;99.90;;;;;;5020224;28;20045;-77
2022/01/13 07:59:49;;;;;;;16.33;9.30;;;6.00;99.90;;;;;;5002168;28;20483;-77
2022/01/13 08:02:14;;;;;;;11.02;7.05;;;6.00;99.90;;;;;;5005472;28;20420;-77
2022/01/13 08:04:40;;;;;;;6.65;5.50;;;6.00;99.90;;;;;;5002269;28;20537;-77
2022/01/13 08:07:06;;;;;;;15.07;7.30;;;6.10;99.90;;;;;;5014770;28;20038;-77
2022/01/13 08:09:31;;;;;;;7.75;7.15;;;6.10;99.90;;;;;;5002278;28;20060;-78
2022/01/13 08:11:57;;;;;;;9.52;8.63;;;6.10;99.90;;;;;;5020376;28;20045;-77
2022/01/13 08:14:22;;;;;;;8.55;5.90;;;6.10;99.90;;;;;;5013945;28;20033;-77
2022/01/13 08:16:50;;;;;;;8.07;6.22;;;6.10;99.90;;;;;;5020029;28;20050;-78
2022/01/13 08:21:59;;;;;;;8.07;6.80;;;6.20;99.90;;;;;;5002188;28;20137;-78
2022/01/13 08:24:25;;;;;;;7.13;6.63;;;6.20;99.90;;;;;;5019867;28;20543;-78
2022/01/13 08:26:51;;;;;;;12.60;8.65;;;6.20;99.90;;;;;;5019702;28;20064;-78
2022/01/13 08:29:16;;;;;;;9.18;5.95;;;6.20;99.90;;;;;;5017236;28;20045;-78
2022/01/13 08:31:42;;;;;;;10.00;8.55;;;6.20;99.90;;;;;;4982343;28;20045;-78
2022/01/13 08:34:08;;;;;;;15.73;10.73;;;6.20;99.90;;;;;;4982363;28;20116;-79
2022/01/13 08:36:33;;;;;;;11.55;7.80;;;6.20;99.90;;;;;;5000156;28;20536;-79
2022/01/13 08:38:59;;;;;;;12.00;7.88;;;6.20;99.90;;;;;;4982053;28;20072;-80
2022/01/13 08:41:24;;;;;;;16.95;8.65;;;6.20;99.90;;;;;;4982743;28;20484;-79
2022/01/13 08:43:53;;;;;;;8.73;7.43;;;6.20;99.90;;;;;;4999638;28;20041;-79
2022/01/13 08:46:19;;;;;;;6.15;4.20;;;6.30;99.90;;;;;;4982066;28;20501;-79
2022/01/13 08:48:44;;;;;;;18.92;7.35;;;6.20;99.90;;;;;;4982931;28;20180;-79
2022/01/13 08:51:10;;;;;;;9.02;6.80;;;6.20;99.90;;;;;;5000307;28;20038;-80
2022/01/13 08:53:38;;;;;;;7.38;4.85;;;6.20;99.90;;;;;;4981624;28;20537;-79
2022/01/13 08:56:04;;;;;;;8.13;6.25;;;6.30;99.90;;;;;;4999966;28;20111;-79
2022/01/13 08:58:29;;;;;;;9.73;8.48;;;6.30;99.90;;;;;;4999082;28;20488;-80
2022/01/13 09:00:56;;;;;;;17.55;5.35;;;6.30;99.90;;;;;;4981770;28;20045;-78
2022/01/13 09:03:22;;;;;;;5.28;4.88;;;6.30;99.90;;;;;;4999895;28;20452;-79
2022/01/13 09:05:47;;;;;;;8.73;5.97;;;6.30;99.90;;;;;;4999767;28;20496;-79
2022/01/13 09:08:13;;;;;;;7.88;7.13;;;6.40;99.90;;;;;;4999426;28;20072;-79
2022/01/13 09:10:41;;;;;;;8.40;7.43;;;6.40;99.90;;;;;;4999982;28;20103;-79
2022/01/13 09:13:14;;;;;;;9.50;5.97;;;6.30;99.90;;;;;;4981292;28;20057;-79
2022/01/13 09:15:45;;;;;;;7.72;6.68;;;6.40;99.90;;;;;;4999273;28;20053;-79
2022/01/13 09:18:16;;;;;;;8.75;7.85;;;6.40;99.90;;;;;;4999631;28;20040;-79
2022/01/13 09:20:42;;;;;;;16.92;6.55;;;6.40;99.90;;;;;;4999516;28;20046;-79
2022/01/13 09:23:08;;;;;;;6.85;5.45;;;6.40;99.90;;;;;;4999400;28;20339;-79
2022/01/13 09:25:34;;;;;;;8.30;7.68;;;6.40;99.90;;;;;;4999600;28;20492;-79
2022/01/13 09:28:01;;;;;;;7.05;6.40;;;6.40;99.90;;;;;;4998211;28;20065;-78
2022/01/13 09:30:27;;;;;;;9.32;7.47;;;6.40;99.90;;;;;;4992911;28;20041;-79
2022/01/13 09:32:52;;;;;;;8.68;7.88;;;6.40;99.90;;;;;;5019662;28;20124;-78
2022/01/13 09:35:18;;;;;;;7.10;6.38;;;6.40;99.90;;;;;;5018240;28;20045;-78
2022/01/13 09:37:44;;;;;;;5.68;5.13;;;6.50;99.90;;;;;;5019513;28;20334;-79
2022/01/13 09:40:10;;;;;;;5.50;5.13;;;6.50;99.90;;;;;;5019176;28;20550;-78
2022/01/13 09:42:40;;;;;;;15.98;7.82;;;6.50;99.90;;;;;;4999962;28;20088;-78
2022/01/13 09:45:06;;;;;;;8.70;7.95;;;6.50;99.90;;;;;;5023088;28;20100;-79
2022/01/13 09:47:33;;;;;;;7.40;6.70;;;6.50;99.90;;;;;;5023125;28;20119;-78
2022/01/13 09:50:04;;;;;;;5.40;5.10;;;6.50;99.90;;;;;;5005204;28;20068;-76
2022/01/13 09:52:30;;;;;;;8.38;7.38;;;6.60;99.90;;;;;;5005162;28;20172;-76
2022/01/13 09:54:55;;;;;;;9.10;5.93;;;6.60;99.90;;;;;;5005572;28;20104;-77
2022/01/13 09:57:21;;;;;;;10.13;7.85;;;6.60;99.90;;;;;;5021876;28;20125;-76
2022/01/13 09:59:47;;;;;;;6.10;5.65;;;6.60;99.90;;;;;;5004826;28;20048;-76
2022/01/13 10:02:12;;;;;;;13.90;6.05;;;6.60;99.90;;;;;;5023535;28;20530;-83
2022/01/13 10:04:47;;;;;;;6.97;5.55;;;6.70;99.90;;;;;;5022580;28;20385;-77
2022/01/13 10:07:17;;;;;;;6.90;6.28;;;6.70;99.90;;;;;;5023483;28;20393;-78
2022/01/13 10:09:58;;;;;;;6.80;5.72;;;6.70;99.90;;;;;;5022973;28;20049;-76
2022/01/13 10:12:31;;;;;;;7.28;6.57;;;6.70;99.90;;;;;;5021788;28;20049;-76
2022/01/13 10:17:28;;;;;;;12.18;7.28;;;6.70;99.90;;;;;;5004490;28;20099;-76
2022/01/13 10:19:57;;;;;;;6.53;6.03;;;6.70;99.90;;;;;;5022677;28;20073;-82
2022/01/13 10:22:31;;;;;;;8.20;6.95;;;6.70;99.90;;;;;;5004283;28;20176;-83
2022/01/13 10:24:58;;;;;;;8.23;7.43;;;6.70;99.90;;;;;;5022087;28;20045;-85
2022/01/13 10:27:31;;;;;;;6.75;6.00;;;6.70;99.90;;;;;;5003750;28;20073;-82
2022/01/13 10:29:58;;;;;;;10.27;7.90;;;6.70;99.90;;;;;;4997070;28;20484;-84
2022/01/13 10:32:27;;;;;;;9.27;8.07;;;6.70;99.90;;;;;;4984879;28;20034;-82
2022/01/13 10:35:19;;;;;;;16.15;8.73;;;6.70;99.90;;;;;;5002646;28;20137;-78
2022/01/13 10:37:57;;;;;;;11.63;9.17;;;6.70;99.90;;;;;;4968953;28;20105;-79
2022/01/13 10:40:31;;;;;;;11.35;7.57;;;6.70;99.90;;;;;;5002439;28;20376;-79
2022/01/13 10:45:33;;;;;;;14.45;8.23;;;6.70;99.90;;;;;;5002277;28;20053;-79
2022/01/13 10:48:05;;;;;;;7.07;6.10;;;6.70;99.90;;;;;;5002083;28;20275;-79
2022/01/13 10:50:47;;;;;;;9.55;8.75;;;6.70;99.90;;;;;;5002248;28;20049;-79
2022/01/13 10:53:20;;;;;;;6.57;5.95;;;6.70;99.90;;;;;;4984208;28;20056;-79
2022/01/13 10:55:49;;;;;;;7.60;6.82;;;6.70;99.90;;;;;;4983594;28;20054;-79
2022/01/13 10:58:17;;;;;;;10.65;7.25;;;6.70;99.90;;;;;;4983720;28;20496;-79
2022/01/13 11:00:44;;;;;;;17.80;7.53;;;6.70;99.90;;;;;;5002526;28;20034;-79
2022/01/13 11:03:21;;;;;;;7.97;7.28;;;6.70;99.90;;;;;;5001686;28;20049;-79
2022/01/13 11:05:51;;;;;;;6.85;6.22;;;6.70;99.90;;;;;;5001200;28;20125;-77
2022/01/13 11:08:21;;;;;;;10.27;6.65;;;6.70;99.90;;;;;;4983645;28;20057;-79
2022/01/13 11:10:49;;;;;;;12.15;9.77;;;6.70;99.90;;;;;;5001886;28;20052;-79
2022/01/13 11:13:19;;;;;;;7.05;6.50;;;6.80;99.90;;;;;;4983281;28;20046;-79
2022/01/13 11:15:50;;;;;;;10.55;7.85;;;6.70;99.90;;;;;;4968008;28;20045;-79
2022/01/13 11:18:20;;;;;;;6.60;5.80;;;6.80;99.90;;;;;;5002217;28;20092;-79
2022/01/13 11:20:47;;;;;;;20.05;9.35;;;6.80;99.90;;;;;;5006297;28;20121;-81
2022/01/13 11:23:14;;;;;;;11.55;9.60;;;6.80;99.90;;;;;;5023008;28;20046;-84
2022/01/13 11:25:40;;;;;;;10.35;7.95;;;6.80;99.90;;;;;;5004123;28;20065;-86
2022/01/13 11:28:07;;;;;;;9.68;6.53;;;6.80;99.90;;;;;;5004315;28;20041;-86
2022/01/13 11:30:33;;;;;;;9.43;8.52;;;6.80;99.90;;;;;;4992103;28;20049;-84
2022/01/13 11:32:59;;;;;;;14.15;7.82;;;6.90;99.90;;;;;;5006341;28;20041;-85
2022/01/13 11:36:14;;;;;;;8.63;7.80;;;6.90;99.90;;;;;;5000843;28;20456;-89
2022/01/13 11:43:54;;;;;;;11.43;7.57;;;6.90;99.90;;;;;;5118805;22;20056;-86
2022/01/13 11:46:22;;;;;;;6.18;5.65;;;7.00;99.90;;;;;;5024222;28;20049;-86
2022/01/13 11:48:55;;;;;;;7.38;6.80;;;7.00;99.90;;;;;;5025072;28;20067;-86
2022/01/13 11:51:21;;;;;;;8.60;6.68;;;7.00;99.90;;;;;;5024194;28;20057;-87
2022/01/13 11:54:00;;;;;;;9.73;5.93;;;7.10;99.90;;;;;;5024487;28;20048;-86
2022/01/13 11:56:26;;;;;;;7.47;6.22;;;7.10;99.90;;;;;;5007074;28;20049;-87
2022/01/13 11:58:53;;;;;;;6.35;5.78;;;7.10;99.90;;;;;;5041150;28;20049;-87
2022/01/13 12:01:30;;;;;;;7.53;6.53;;;7.20;99.90;;;;;;5008506;28;20184;-86
2022/01/13 12:04:03;;;;;;;6.53;6.03;;;7.20;99.90;;;;;;5021944;28;20051;-94
2022/01/13 12:06:37;;;;;;;14.00;6.10;;;7.20;99.90;;;;;;5019602;28;20099;-85
2022/01/13 12:09:05;;;;;;;6.43;3.88;;;7.20;99.90;;;;;;5031962;28;20365;-85
2022/01/13 12:11:35;;;;;;;6.25;5.63;;;7.20;99.90;;;;;;5011693;28;20050;-85
2022/01/13 12:14:00;;;;;;;11.75;5.80;;;7.20;99.90;;;;;;5031282;28;20204;-84
2022/01/13 12:16:53;;;;;;;7.93;7.20;;;7.20;99.90;;;;;;5014353;28;20037;-84
2022/01/13 12:19:34;;;;;;;10.13;7.28;;;7.30;99.90;;;;;;5014038;28;20038;-85
2022/01/13 12:22:06;;;;;;;11.32;6.55;;;7.30;99.90;;;;;;5030722;28;20477;-91
2022/01/13 12:24:59;;;;;;;19.85;6.45;;;7.30;99.90;;;;;;5016973;28;20059;-89
2022/01/13 12:27:43;;;;;;;;;;;7.30;99.90;;;;;;5012898;28;20037;-88
2022/01/13 12:30:28;;;;;;;8.32;7.45;;;7.40;99.90;;;;;;4998333;28;20164;-93
2022/01/13 12:32:59;;;;;;;7.28;6.65;;;7.40;99.90;;;;;;5009483;28;20107;-83
2022/01/13 12:35:39;;;;;;;5.57;5.00;;;7.40;99.90;;;;;;5023352;28;20131;-85
2022/01/13 12:38:20;;;;;;;8.48;6.03;;;7.40;99.90;;;;;;5023942;28;20171;-91
2022/01/13 12:41:15;;;;;;;9.38;6.22;;;7.40;99.90;;;;;;5021320;28;20130;-90
2022/01/13 12:46:16;;;;;;;7.45;4.57;;;7.50;99.90;;;;;;5032305;28;20072;-88
2022/01/13 12:48:44;;;;;;;7.93;5.72;;;7.50;99.90;;;;;;5028354;28;20056;-82
2022/01/13 12:51:24;;;;;;;9.70;6.60;;;7.50;99.90;;;;;;5013356;28;20037;-82
2022/01/13 12:53:55;;;;;;;7.15;5.63;;;7.50;99.90;;;;;;5038006;28;20071;-87
2022/01/13 12:56:28;;;;;;;6.88;5.72;;;7.50;99.90;;;;;;5056290;28;20040;-85
2022/01/13 12:59:13;;;;;;;6.38;5.43;;;7.50;99.90;;;;;;5037795;28;20044;-87
2022/01/13 13:02:10;;;;;;;9.50;5.97;;;7.50;99.90;;;;;;5006285;28;20081;-86
2022/01/13 13:04:37;;;;;;;7.43;5.75;;;7.50;99.90;;;;;;4997551;28;20428;-83
2022/01/13 13:07:03;;;;;;;7.93;6.20;;;7.60;99.90;;;;;;4991881;28;20067;-83
2022/01/13 13:09:30;;;;;;;4.25;4.05;;;7.60;99.90;;;;;;4993349;28;20129;-88
2022/01/13 13:12:00;;;;;;;8.82;4.75;;;7.60;99.90;;;;;;5025251;28;20446;-86
2022/01/13 13:17:31;;;;;;;13.77;5.50;;;7.60;99.90;;;;;;5014777;28;20056;-84
2022/01/13 13:19:56;;;;;;;7.45;4.88;;;7.60;99.90;;;;;;5016969;28;20045;-84
2022/01/13 13:22:22;;;;;;;10.02;5.53;;;7.60;99.90;;;;;;5016021;28;20062;-88
2022/01/13 13:24:47;;;;;;;13.52;4.05;;;7.60;99.90;;;;;;4986703;28;20033;-85
2022/01/13 13:27:13;;;;;;;7.70;5.25;;;7.60;99.90;;;;;;5014563;28;20041;-86
2022/01/13 13:29:39;;;;;;;23.77;6.55;;;7.70;99.90;;;;;;5005906;28;20392;-86
2022/01/13 13:32:08;;;;;;;5.13;4.30;;;7.60;99.90;;;;;;4997147;28;20542;-90
2022/01/13 13:34:34;;;;;;;4.47;4.07;;;7.70;99.90;;;;;;5003223;28;20064;-92
2022/01/13 13:37:05;;;;;;;25.67;4.88;;;7.70;99.90;;;;;;4976502;28;20057;-96
2022/01/13 13:39:33;;;;;;;8.02;5.35;;;7.70;99.90;;;;;;4978632;28;20045;-92